sensor_id;sensor_type;location;lat;lon;timestamp;P1;durP1;ratioP1;P2;durP2;ratioP2
22248;SDS011;67538;52.180;5.646;2024-01-11T00:00:45;19.87;;;8.43;;
22248;SDS011;67538;52.180;5.646;2024-01-11T00:03:12;17.07;;;8.50;;
22248;SDS011;67538;52.180;5.646;2024-01-11T00:05:39;17.40;;;8.60;;
22248;SDS011;67538;52.180;5.646;2024-01-11T00:08:06;18.63;;;8.53;;
22248;SDS011;67538;52.180;5.646;2024-01-11T00:10:34;20.07;;;8.93;;
22248;SDS011;67538;52.180;5.646;2024-01-11T00:13:01;17.27;;;8.37;;
22248;SDS011;67538;52.180;5.646;2024-01-11T00:15:29;15.93;;;8.10;;
22248;SDS011;67538;52.180;5.646;2024-01-11T00:17:57;17.63;;;8.57;;
22248;SDS011;67538;52.180;5.646;2024-01-11T00:20:24;23.33;;;9.07;;
22248;SDS011;67538;52.180;5.646;2024-01-11T00:22:51;19.40;;;8.80;;
22248;SDS011;67538;52.180;5.646;2024-01-11T00:25:18;20.37;;;9.07;;
22248;SDS011;67538;52.180;5.646;2024-01-11T00:27:45;20.83;;;8.83;;
22248;SDS011;67538;52.180;5.646;2024-01-11T00:30:13;19.47;;;9.10;;
22248;SDS011;67538;52.180;5.646;2024-01-11T00:32:40;16.73;;;8.97;;
22248;SDS011;67538;52.180;5.646;2024-01-11T00:35:08;21.00;;;8.80;;
22248;SDS011;67538;52.180;5.646;2024-01-11T00:37:35;22.47;;;9.20;;
22248;SDS011;67538;52.180;5.646;2024-01-11T00:40:03;20.00;;;9.67;;
22248;SDS011;67538;52.180;5.646;2024-01-11T00:42:31;17.77;;;8.67;;
22248;SDS011;67538;52.180;5.646;2024-01-11T00:44:59;16.07;;;9.30;;
22248;SDS011;67538;52.180;5.646;2024-01-11T00:47:27;17.80;;;8.77;;
22248;SDS011;67538;52.180;5.646;2024-01-11T00:49:54;18.87;;;8.50;;
22248;SDS011;67538;52.180;5.646;2024-01-11T00:52:22;18.83;;;8.70;;
22248;SDS011;67538;52.180;5.646;2024-01-11T00:54:49;18.23;;;9.13;;
22248;SDS011;67538;52.180;5.646;2024-01-11T00:57:16;19.00;;;8.83;;
22248;SDS011;67538;52.180;5.646;2024-01-11T00:59:43;21.00;;;9.30;;
22248;SDS011;67538;52.180;5.646;2024-01-11T01:02:11;17.53;;;8.77;;
22248;SDS011;67538;52.180;5.646;2024-01-11T01:04:38;20.40;;;9.07;;
22248;SDS011;67538;52.180;5.646;2024-01-11T01:07:05;21.23;;;9.13;;
22248;SDS011;67538;52.180;5.646;2024-01-11T01:09:33;17.00;;;9.13;;
22248;SDS011;67538;52.180;5.646;2024-01-11T01:12:00;18.63;;;9.20;;
22248;SDS011;67538;52.180;5.646;2024-01-11T01:14:28;20.23;;;9.43;;
22248;SDS011;67538;52.180;5.646;2024-01-11T01:16:55;17.87;;;8.70;;
22248;SDS011;67538;52.180;5.646;2024-01-11T01:19:22;22.30;;;8.97;;
22248;SDS011;67538;52.180;5.646;2024-01-11T01:21:49;20.57;;;9.67;;
22248;SDS011;67538;52.180;5.646;2024-01-11T01:24:16;20.73;;;9.60;;
22248;SDS011;67538;52.180;5.646;2024-01-11T01:26:45;20.30;;;9.97;;
22248;SDS011;67538;52.180;5.646;2024-01-11T01:29:12;24.23;;;9.90;;
22248;SDS011;67538;52.180;5.646;2024-01-11T01:31:39;19.67;;;9.13;;
22248;SDS011;67538;52.180;5.646;2024-01-11T01:34:06;20.30;;;9.63;;
22248;SDS011;67538;52.180;5.646;2024-01-11T01:36:34;24.10;;;9.40;;
22248;SDS011;67538;52.180;5.646;2024-01-11T01:39:01;21.80;;;9.70;;
22248;SDS011;67538;52.180;5.646;2024-01-11T01:41:28;18.33;;;9.10;;
22248;SDS011;67538;52.180;5.646;2024-01-11T01:43:57;21.27;;;9.03;;
22248;SDS011;67538;52.180;5.646;2024-01-11T01:46:24;19.17;;;9.13;;
22248;SDS011;67538;52.180;5.646;2024-01-11T01:48:52;24.57;;;9.87;;
22248;SDS011;67538;52.180;5.646;2024-01-11T01:51:21;22.40;;;9.63;;
22248;SDS011;67538;52.180;5.646;2024-01-11T01:53:49;22.27;;;9.50;;
22248;SDS011;67538;52.180;5.646;2024-01-11T01:56:19;27.93;;;10.37;;
22248;SDS011;67538;52.180;5.646;2024-01-11T01:58:47;21.07;;;9.03;;
22248;SDS011;67538;52.180;5.646;2024-01-11T02:01:18;23.73;;;10.00;;
22248;SDS011;67538;52.180;5.646;2024-01-11T02:03:47;18.77;;;8.87;;
22248;SDS011;67538;52.180;5.646;2024-01-11T02:06:17;19.77;;;9.83;;
22248;SDS011;67538;52.180;5.646;2024-01-11T02:08:47;22.97;;;10.33;;
22248;SDS011;67538;52.180;5.646;2024-01-11T02:11:17;18.77;;;9.27;;
22248;SDS011;67538;52.180;5.646;2024-01-11T02:13:46;26.00;;;9.70;;
22248;SDS011;67538;52.180;5.646;2024-01-11T02:16:13;22.03;;;10.27;;
22248;SDS011;67538;52.180;5.646;2024-01-11T02:18:42;26.97;;;9.10;;
22248;SDS011;67538;52.180;5.646;2024-01-11T02:21:11;21.97;;;8.83;;
22248;SDS011;67538;52.180;5.646;2024-01-11T02:23:42;21.87;;;10.37;;
22248;SDS011;67538;52.180;5.646;2024-01-11T02:26:13;26.73;;;10.97;;
22248;SDS011;67538;52.180;5.646;2024-01-11T02:28:43;25.40;;;9.63;;
22248;SDS011;67538;52.180;5.646;2024-01-11T02:31:11;25.73;;;9.50;;
22248;SDS011;67538;52.180;5.646;2024-01-11T02:33:40;22.70;;;10.33;;
22248;SDS011;67538;52.180;5.646;2024-01-11T02:36:08;23.83;;;9.43;;
22248;SDS011;67538;52.180;5.646;2024-01-11T02:38:35;22.80;;;10.37;;
22248;SDS011;67538;52.180;5.646;2024-01-11T02:41:03;26.80;;;10.73;;
22248;SDS011;67538;52.180;5.646;2024-01-11T02:43:33;25.23;;;10.23;;
22248;SDS011;67538;52.180;5.646;2024-01-11T02:46:01;28.03;;;10.33;;
22248;SDS011;67538;52.180;5.646;2024-01-11T02:48:28;21.53;;;9.93;;
22248;SDS011;67538;52.180;5.646;2024-01-11T02:50:55;25.97;;;10.40;;
22248;SDS011;67538;52.180;5.646;2024-01-11T02:53:23;22.10;;;9.80;;
22248;SDS011;67538;52.180;5.646;2024-01-11T02:55:50;23.23;;;10.53;;
22248;SDS011;67538;52.180;5.646;2024-01-11T02:58:17;23.93;;;10.03;;
22248;SDS011;67538;52.180;5.646;2024-01-11T03:00:45;24.57;;;10.93;;
22248;SDS011;67538;52.180;5.646;2024-01-11T03:03:12;22.57;;;10.57;;
22248;SDS011;67538;52.180;5.646;2024-01-11T03:05:40;19.40;;;10.17;;
22248;SDS011;67538;52.180;5.646;2024-01-11T03:08:07;22.83;;;10.27;;
22248;SDS011;67538;52.180;5.646;2024-01-11T03:10:34;25.07;;;11.23;;
22248;SDS011;67538;52.180;5.646;2024-01-11T03:13:05;24.17;;;11.37;;
22248;SDS011;67538;52.180;5.646;2024-01-11T03:15:32;22.73;;;9.63;;
22248;SDS011;67538;52.180;5.646;2024-01-11T03:18:00;29.30;;;11.07;;
22248;SDS011;67538;52.180;5.646;2024-01-11T03:20:27;19.77;;;10.03;;
22248;SDS011;67538;52.180;5.646;2024-01-11T03:22:54;25.67;;;11.67;;
22248;SDS011;67538;52.180;5.646;2024-01-11T03:25:21;30.27;;;11.57;;
22248;SDS011;67538;52.180;5.646;2024-01-11T03:27:49;22.37;;;10.83;;
22248;SDS011;67538;52.180;5.646;2024-01-11T03:30:16;25.80;;;10.57;;
22248;SDS011;67538;52.180;5.646;2024-01-11T03:32:43;25.20;;;11.13;;
22248;SDS011;67538;52.180;5.646;2024-01-11T03:35:11;25.00;;;10.53;;
22248;SDS011;67538;52.180;5.646;2024-01-11T03:37:38;25.97;;;10.50;;
22248;SDS011;67538;52.180;5.646;2024-01-11T03:40:06;26.90;;;11.93;;
22248;SDS011;67538;52.180;5.646;2024-01-11T03:42:33;27.67;;;10.70;;
22248;SDS011;67538;52.180;5.646;2024-01-11T03:45:00;26.97;;;10.80;;
22248;SDS011;67538;52.180;5.646;2024-01-11T03:47:28;25.73;;;11.33;;
22248;SDS011;67538;52.180;5.646;2024-01-11T03:49:55;28.83;;;11.33;;
22248;SDS011;67538;52.180;5.646;2024-01-11T03:52:23;28.80;;;12.00;;
22248;SDS011;67538;52.180;5.646;2024-01-11T03:54:50;32.73;;;12.60;;
22248;SDS011;67538;52.180;5.646;2024-01-11T03:57:18;25.60;;;11.13;;
22248;SDS011;67538;52.180;5.646;2024-01-11T03:59:45;26.50;;;12.07;;
22248;SDS011;67538;52.180;5.646;2024-01-11T04:02:12;27.40;;;12.30;;
22248;SDS011;67538;52.180;5.646;2024-01-11T04:04:39;29.70;;;11.80;;
22248;SDS011;67538;52.180;5.646;2024-01-11T04:07:07;26.80;;;11.90;;
22248;SDS011;67538;52.180;5.646;2024-01-11T04:09:38;31.97;;;13.70;;
22248;SDS011;67538;52.180;5.646;2024-01-11T04:12:05;30.27;;;13.43;;
22248;SDS011;67538;52.180;5.646;2024-01-11T04:14:33;31.87;;;13.13;;
22248;SDS011;67538;52.180;5.646;2024-01-11T04:17:04;26.03;;;12.10;;
22248;SDS011;67538;52.180;5.646;2024-01-11T04:19:31;29.57;;;13.80;;
22248;SDS011;67538;52.180;5.646;2024-01-11T04:21:58;30.33;;;14.03;;
22248;SDS011;67538;52.180;5.646;2024-01-11T04:24:25;34.70;;;14.07;;
22248;SDS011;67538;52.180;5.646;2024-01-11T04:26:53;30.70;;;13.33;;
22248;SDS011;67538;52.180;5.646;2024-01-11T04:29:20;35.43;;;14.97;;
22248;SDS011;67538;52.180;5.646;2024-01-11T04:31:47;36.33;;;15.37;;
22248;SDS011;67538;52.180;5.646;2024-01-11T04:34:14;45.77;;;15.27;;
22248;SDS011;67538;52.180;5.646;2024-01-11T04:36:41;33.03;;;15.73;;
22248;SDS011;67538;52.180;5.646;2024-01-11T04:39:08;33.50;;;14.93;;
22248;SDS011;67538;52.180;5.646;2024-01-11T04:41:36;37.00;;;15.67;;
22248;SDS011;67538;52.180;5.646;2024-01-11T04:44:05;36.67;;;15.40;;
22248;SDS011;67538;52.180;5.646;2024-01-11T04:46:32;40.40;;;15.80;;
22248;SDS011;67538;52.180;5.646;2024-01-11T04:48:59;37.53;;;15.03;;
22248;SDS011;67538;52.180;5.646;2024-01-11T04:51:26;33.87;;;16.07;;
22248;SDS011;67538;52.180;5.646;2024-01-11T04:53:53;41.37;;;16.47;;
22248;SDS011;67538;52.180;5.646;2024-01-11T04:56:20;47.50;;;15.77;;
22248;SDS011;67538;52.180;5.646;2024-01-11T04:58:47;39.37;;;16.77;;
22248;SDS011;67538;52.180;5.646;2024-01-11T05:01:16;42.27;;;16.70;;
22248;SDS011;67538;52.180;5.646;2024-01-11T05:03:44;41.97;;;17.73;;
22248;SDS011;67538;52.180;5.646;2024-01-11T05:06:14;40.27;;;17.40;;
22248;SDS011;67538;52.180;5.646;2024-01-11T05:08:42;38.10;;;15.73;;
22248;SDS011;67538;52.180;5.646;2024-01-11T05:11:14;44.20;;;17.23;;
22248;SDS011;67538;52.180;5.646;2024-01-11T05:13:42;39.87;;;16.37;;
22248;SDS011;67538;52.180;5.646;2024-01-11T05:16:17;45.57;;;16.77;;
22248;SDS011;67538;52.180;5.646;2024-01-11T05:18:48;42.83;;;17.47;;
22248;SDS011;67538;52.180;5.646;2024-01-11T05:21:16;44.23;;;18.20;;
22248;SDS011;67538;52.180;5.646;2024-01-11T05:23:43;46.53;;;19.47;;
22248;SDS011;67538;52.180;5.646;2024-01-11T05:26:10;45.53;;;17.90;;
22248;SDS011;67538;52.180;5.646;2024-01-11T05:28:37;46.10;;;17.90;;
22248;SDS011;67538;52.180;5.646;2024-01-11T05:31:05;56.03;;;19.23;;
22248;SDS011;67538;52.180;5.646;2024-01-11T05:33:34;42.97;;;17.90;;
22248;SDS011;67538;52.180;5.646;2024-01-11T05:36:01;43.27;;;18.33;;
22248;SDS011;67538;52.180;5.646;2024-01-11T05:38:28;41.50;;;17.63;;
22248;SDS011;67538;52.180;5.646;2024-01-11T05:40:55;44.60;;;18.73;;
22248;SDS011;67538;52.180;5.646;2024-01-11T05:43:23;47.63;;;18.90;;
22248;SDS011;67538;52.180;5.646;2024-01-11T05:45:50;36.33;;;16.00;;
22248;SDS011;67538;52.180;5.646;2024-01-11T05:48:17;41.60;;;16.90;;
22248;SDS011;67538;52.180;5.646;2024-01-11T05:50:46;47.13;;;18.37;;
22248;SDS011;67538;52.180;5.646;2024-01-11T05:53:13;39.30;;;16.40;;
22248;SDS011;67538;52.180;5.646;2024-01-11T05:55:40;44.87;;;17.67;;
22248;SDS011;67538;52.180;5.646;2024-01-11T05:58:07;43.00;;;17.10;;
22248;SDS011;67538;52.180;5.646;2024-01-11T06:00:35;35.57;;;16.77;;
22248;SDS011;67538;52.180;5.646;2024-01-11T06:03:02;40.10;;;17.00;;
22248;SDS011;67538;52.180;5.646;2024-01-11T06:05:29;39.20;;;17.33;;
22248;SDS011;67538;52.180;5.646;2024-01-11T06:07:58;39.23;;;16.33;;
22248;SDS011;67538;52.180;5.646;2024-01-11T06:10:25;41.77;;;16.93;;
22248;SDS011;67538;52.180;5.646;2024-01-11T06:12:52;45.33;;;17.13;;
22248;SDS011;67538;52.180;5.646;2024-01-11T06:15:19;38.23;;;17.00;;
22248;SDS011;67538;52.180;5.646;2024-01-11T06:17:46;42.60;;;18.33;;
22248;SDS011;67538;52.180;5.646;2024-01-11T06:20:13;37.43;;;17.87;;
22248;SDS011;67538;52.180;5.646;2024-01-11T06:22:41;48.50;;;18.90;;
22248;SDS011;67538;52.180;5.646;2024-01-11T06:25:09;38.90;;;16.80;;
22248;SDS011;67538;52.180;5.646;2024-01-11T06:27:36;42.47;;;17.60;;
22248;SDS011;67538;52.180;5.646;2024-01-11T06:30:04;40.13;;;18.10;;
22248;SDS011;67538;52.180;5.646;2024-01-11T06:32:32;36.93;;;17.53;;
22248;SDS011;67538;52.180;5.646;2024-01-11T06:34:59;45.20;;;17.83;;
22248;SDS011;67538;52.180;5.646;2024-01-11T06:37:27;47.87;;;17.13;;
22248;SDS011;67538;52.180;5.646;2024-01-11T06:39:54;41.60;;;18.43;;
22248;SDS011;67538;52.180;5.646;2024-01-11T06:42:22;46.07;;;17.57;;
22248;SDS011;67538;52.180;5.646;2024-01-11T06:44:49;44.23;;;18.17;;
22248;SDS011;67538;52.180;5.646;2024-01-11T06:47:16;41.07;;;18.13;;
22248;SDS011;67538;52.180;5.646;2024-01-11T06:49:44;40.50;;;18.07;;
22248;SDS011;67538;52.180;5.646;2024-01-11T06:52:11;43.57;;;18.60;;
22248;SDS011;67538;52.180;5.646;2024-01-11T06:54:39;41.73;;;16.30;;
22248;SDS011;67538;52.180;5.646;2024-01-11T06:57:07;46.83;;;18.97;;
22248;SDS011;67538;52.180;5.646;2024-01-11T06:59:35;46.47;;;18.77;;
22248;SDS011;67538;52.180;5.646;2024-01-11T07:02:02;44.90;;;18.10;;
22248;SDS011;67538;52.180;5.646;2024-01-11T07:04:29;44.93;;;19.73;;
22248;SDS011;67538;52.180;5.646;2024-01-11T07:06:56;46.90;;;19.13;;
22248;SDS011;67538;52.180;5.646;2024-01-11T07:09:24;46.90;;;18.17;;
22248;SDS011;67538;52.180;5.646;2024-01-11T07:11:51;46.90;;;18.07;;
22248;SDS011;67538;52.180;5.646;2024-01-11T07:14:18;46.93;;;18.93;;
22248;SDS011;67538;52.180;5.646;2024-01-11T07:16:46;55.53;;;20.63;;
22248;SDS011;67538;52.180;5.646;2024-01-11T07:19:14;43.20;;;19.10;;
22248;SDS011;67538;52.180;5.646;2024-01-11T07:21:41;50.10;;;19.50;;
22248;SDS011;67538;52.180;5.646;2024-01-11T07:24:08;53.77;;;20.20;;
22248;SDS011;67538;52.180;5.646;2024-01-11T07:26:35;57.00;;;20.73;;
22248;SDS011;67538;52.180;5.646;2024-01-11T07:29:02;43.77;;;18.80;;
22248;SDS011;67538;52.180;5.646;2024-01-11T07:31:29;46.37;;;20.13;;
22248;SDS011;67538;52.180;5.646;2024-01-11T07:33:58;47.83;;;19.60;;
22248;SDS011;67538;52.180;5.646;2024-01-11T07:36:25;46.37;;;20.77;;
22248;SDS011;67538;52.180;5.646;2024-01-11T07:38:52;45.77;;;19.77;;
22248;SDS011;67538;52.180;5.646;2024-01-11T07:41:21;49.27;;;19.43;;
22248;SDS011;67538;52.180;5.646;2024-01-11T07:43:48;46.83;;;18.57;;
22248;SDS011;67538;52.180;5.646;2024-01-11T07:46:15;58.57;;;21.57;;
22248;SDS011;67538;52.180;5.646;2024-01-11T07:48:42;48.73;;;20.30;;
22248;SDS011;67538;52.180;5.646;2024-01-11T07:51:11;53.93;;;20.90;;
22248;SDS011;67538;52.180;5.646;2024-01-11T07:53:38;57.43;;;21.13;;
22248;SDS011;67538;52.180;5.646;2024-01-11T07:56:06;42.97;;;19.47;;
22248;SDS011;67538;52.180;5.646;2024-01-11T07:58:33;48.73;;;19.20;;
22248;SDS011;67538;52.180;5.646;2024-01-11T08:01:02;51.67;;;20.23;;
22248;SDS011;67538;52.180;5.646;2024-01-11T08:03:30;54.03;;;21.17;;
22248;SDS011;67538;52.180;5.646;2024-01-11T08:05:58;59.50;;;19.90;;
22248;SDS011;67538;52.180;5.646;2024-01-11T08:08:26;51.23;;;21.60;;
22248;SDS011;67538;52.180;5.646;2024-01-11T08:10:54;56.97;;;21.27;;
22248;SDS011;67538;52.180;5.646;2024-01-11T08:13:21;49.83;;;21.47;;
22248;SDS011;67538;52.180;5.646;2024-01-11T08:15:48;48.60;;;21.40;;
22248;SDS011;67538;52.180;5.646;2024-01-11T08:18:16;57.63;;;21.60;;
22248;SDS011;67538;52.180;5.646;2024-01-11T08:20:44;58.53;;;23.90;;
22248;SDS011;67538;52.180;5.646;2024-01-11T08:23:12;56.10;;;22.83;;
22248;SDS011;67538;52.180;5.646;2024-01-11T08:25:40;53.17;;;21.20;;
22248;SDS011;67538;52.180;5.646;2024-01-11T08:28:07;66.07;;;23.63;;
22248;SDS011;67538;52.180;5.646;2024-01-11T08:30:34;56.90;;;21.80;;
22248;SDS011;67538;52.180;5.646;2024-01-11T08:33:02;63.67;;;23.33;;
22248;SDS011;67538;52.180;5.646;2024-01-11T08:35:30;65.77;;;24.30;;
22248;SDS011;67538;52.180;5.646;2024-01-11T08:37:57;54.20;;;22.43;;
22248;SDS011;67538;52.180;5.646;2024-01-11T08:40:26;52.03;;;20.70;;
22248;SDS011;67538;52.180;5.646;2024-01-11T08:42:54;55.13;;;22.43;;
22248;SDS011;67538;52.180;5.646;2024-01-11T08:45:21;54.60;;;21.87;;
22248;SDS011;67538;52.180;5.646;2024-01-11T08:47:49;50.40;;;22.37;;
22248;SDS011;67538;52.180;5.646;2024-01-11T08:50:16;53.33;;;22.80;;
22248;SDS011;67538;52.180;5.646;2024-01-11T08:52:45;58.57;;;22.63;;
22248;SDS011;67538;52.180;5.646;2024-01-11T08:55:12;58.10;;;23.17;;
22248;SDS011;67538;52.180;5.646;2024-01-11T08:57:41;49.97;;;19.53;;
22248;SDS011;67538;52.180;5.646;2024-01-11T09:00:10;55.03;;;21.03;;
22248;SDS011;67538;52.180;5.646;2024-01-11T09:02:42;54.50;;;20.10;;
22248;SDS011;67538;52.180;5.646;2024-01-11T09:05:09;53.77;;;21.17;;
22248;SDS011;67538;52.180;5.646;2024-01-11T09:07:36;51.47;;;18.57;;
22248;SDS011;67538;52.180;5.646;2024-01-11T09:10:04;48.27;;;18.33;;
22248;SDS011;67538;52.180;5.646;2024-01-11T09:12:33;48.03;;;17.97;;
22248;SDS011;67538;52.180;5.646;2024-01-11T09:15:01;46.60;;;16.93;;
22248;SDS011;67538;52.180;5.646;2024-01-11T09:17:30;53.37;;;17.20;;
22248;SDS011;67538;52.180;5.646;2024-01-11T09:19:57;53.53;;;18.57;;
22248;SDS011;67538;52.180;5.646;2024-01-11T09:22:24;46.50;;;17.63;;
22248;SDS011;67538;52.180;5.646;2024-01-11T09:24:52;40.53;;;15.47;;
22248;SDS011;67538;52.180;5.646;2024-01-11T09:27:20;44.30;;;17.27;;
22248;SDS011;67538;52.180;5.646;2024-01-11T09:29:47;48.40;;;17.70;;
22248;SDS011;67538;52.180;5.646;2024-01-11T09:32:14;45.93;;;15.57;;
22248;SDS011;67538;52.180;5.646;2024-01-11T09:34:42;53.33;;;16.50;;
22248;SDS011;67538;52.180;5.646;2024-01-11T09:37:10;48.47;;;16.73;;
22248;SDS011;67538;52.180;5.646;2024-01-11T09:39:38;42.17;;;15.57;;
22248;SDS011;67538;52.180;5.646;2024-01-11T09:42:06;46.97;;;14.00;;
22248;SDS011;67538;52.180;5.646;2024-01-11T09:44:35;53.13;;;14.93;;
22248;SDS011;67538;52.180;5.646;2024-01-11T09:47:03;52.87;;;15.53;;
22248;SDS011;67538;52.180;5.646;2024-01-11T09:49:34;39.33;;;14.57;;
22248;SDS011;67538;52.180;5.646;2024-01-11T09:52:05;46.60;;;15.33;;
22248;SDS011;67538;52.180;5.646;2024-01-11T09:54:34;47.07;;;17.13;;
22248;SDS011;67538;52.180;5.646;2024-01-11T09:57:03;53.10;;;18.30;;
22248;SDS011;67538;52.180;5.646;2024-01-11T09:59:31;47.57;;;16.53;;
22248;SDS011;67538;52.180;5.646;2024-01-11T10:02:01;57.40;;;16.73;;
22248;SDS011;67538;52.180;5.646;2024-01-11T10:04:33;53.50;;;16.63;;
22248;SDS011;67538;52.180;5.646;2024-01-11T10:07:00;55.07;;;21.53;;
22248;SDS011;67538;52.180;5.646;2024-01-11T10:09:31;53.93;;;18.47;;
22248;SDS011;67538;52.180;5.646;2024-01-11T10:11:59;45.60;;;14.80;;
22248;SDS011;67538;52.180;5.646;2024-01-11T10:14:26;43.20;;;15.10;;
22248;SDS011;67538;52.180;5.646;2024-01-11T10:16:53;62.23;;;20.13;;
22248;SDS011;67538;52.180;5.646;2024-01-11T10:19:20;56.47;;;19.17;;
22248;SDS011;67538;52.180;5.646;2024-01-11T10:21:47;52.43;;;16.60;;
22248;SDS011;67538;52.180;5.646;2024-01-11T10:24:18;45.97;;;17.73;;
22248;SDS011;67538;52.180;5.646;2024-01-11T10:26:48;46.60;;;16.87;;
22248;SDS011;67538;52.180;5.646;2024-01-11T10:29:16;54.07;;;17.43;;
22248;SDS011;67538;52.180;5.646;2024-01-11T10:31:43;56.13;;;17.50;;
22248;SDS011;67538;52.180;5.646;2024-01-11T10:34:10;44.17;;;15.50;;
22248;SDS011;67538;52.180;5.646;2024-01-11T10:36:37;46.83;;;16.07;;
22248;SDS011;67538;52.180;5.646;2024-01-11T10:39:06;52.67;;;16.87;;
22248;SDS011;67538;52.180;5.646;2024-01-11T10:41:38;57.07;;;17.83;;
22248;SDS011;67538;52.180;5.646;2024-01-11T10:44:07;51.03;;;16.03;;
22248;SDS011;67538;52.180;5.646;2024-01-11T10:46:42;50.77;;;16.43;;
22248;SDS011;67538;52.180;5.646;2024-01-11T10:49:13;52.40;;;16.17;;
22248;SDS011;67538;52.180;5.646;2024-01-11T10:51:43;46.03;;;16.57;;
22248;SDS011;67538;52.180;5.646;2024-01-11T10:54:14;53.97;;;17.37;;
22248;SDS011;67538;52.180;5.646;2024-01-11T10:56:44;60.03;;;16.90;;
22248;SDS011;67538;52.180;5.646;2024-01-11T10:59:11;49.20;;;17.23;;
22248;SDS011;67538;52.180;5.646;2024-01-11T11:01:39;44.83;;;15.13;;
22248;SDS011;67538;52.180;5.646;2024-01-11T11:04:07;47.17;;;15.80;;
22248;SDS011;67538;52.180;5.646;2024-01-11T11:06:35;47.80;;;16.87;;
22248;SDS011;67538;52.180;5.646;2024-01-11T11:09:05;53.67;;;16.57;;
22248;SDS011;67538;52.180;5.646;2024-01-11T11:11:33;53.30;;;17.70;;
22248;SDS011;67538;52.180;5.646;2024-01-11T11:14:02;45.53;;;16.43;;
22248;SDS011;67538;52.180;5.646;2024-01-11T11:16:31;48.30;;;16.60;;
22248;SDS011;67538;52.180;5.646;2024-01-11T11:18:58;63.30;;;19.47;;
22248;SDS011;67538;52.180;5.646;2024-01-11T11:21:25;53.47;;;16.80;;
22248;SDS011;67538;52.180;5.646;2024-01-11T11:23:53;54.53;;;17.40;;
22248;SDS011;67538;52.180;5.646;2024-01-11T11:26:21;49.73;;;17.30;;
22248;SDS011;67538;52.180;5.646;2024-01-11T11:28:52;53.00;;;16.43;;
22248;SDS011;67538;52.180;5.646;2024-01-11T11:34:13;55.73;;;18.73;;
22248;SDS011;67538;52.180;5.646;2024-01-11T11:36:40;52.27;;;18.47;;
22248;SDS011;67538;52.180;5.646;2024-01-11T11:39:09;55.07;;;19.43;;
22248;SDS011;67538;52.180;5.646;2024-01-11T11:41:37;60.13;;;17.53;;
22248;SDS011;67538;52.180;5.646;2024-01-11T11:44:05;56.60;;;19.33;;
22248;SDS011;67538;52.180;5.646;2024-01-11T11:46:32;54.50;;;18.23;;
22248;SDS011;67538;52.180;5.646;2024-01-11T11:49:00;60.63;;;19.77;;
22248;SDS011;67538;52.180;5.646;2024-01-11T11:51:28;60.50;;;18.93;;
22248;SDS011;67538;52.180;5.646;2024-01-11T11:53:55;57.57;;;18.27;;
22248;SDS011;67538;52.180;5.646;2024-01-11T11:56:24;51.73;;;18.13;;
22248;SDS011;67538;52.180;5.646;2024-01-11T11:58:51;52.40;;;17.97;;
22248;SDS011;67538;52.180;5.646;2024-01-11T12:01:20;47.83;;;17.47;;
22248;SDS011;67538;52.180;5.646;2024-01-11T12:03:47;47.30;;;17.90;;
22248;SDS011;67538;52.180;5.646;2024-01-11T12:06:15;54.37;;;19.17;;
22248;SDS011;67538;52.180;5.646;2024-01-11T12:08:45;50.53;;;17.27;;
22248;SDS011;67538;52.180;5.646;2024-01-11T12:11:14;47.37;;;17.23;;
22248;SDS011;67538;52.180;5.646;2024-01-11T12:13:43;50.80;;;18.20;;
22248;SDS011;67538;52.180;5.646;2024-01-11T12:16:11;52.63;;;17.60;;
22248;SDS011;67538;52.180;5.646;2024-01-11T12:18:38;49.23;;;17.97;;
22248;SDS011;67538;52.180;5.646;2024-01-11T12:21:06;51.43;;;16.90;;
22248;SDS011;67538;52.180;5.646;2024-01-11T12:23:33;45.33;;;17.20;;
22248;SDS011;67538;52.180;5.646;2024-01-11T12:26:02;46.73;;;16.13;;
22248;SDS011;67538;52.180;5.646;2024-01-11T12:28:32;40.07;;;15.37;;
22248;SDS011;67538;52.180;5.646;2024-01-11T12:30:59;44.47;;;16.70;;
22248;SDS011;67538;52.180;5.646;2024-01-11T12:33:28;44.43;;;17.20;;
22248;SDS011;67538;52.180;5.646;2024-01-11T12:35:56;48.43;;;17.63;;
22248;SDS011;67538;52.180;5.646;2024-01-11T12:38:23;47.57;;;17.50;;
22248;SDS011;67538;52.180;5.646;2024-01-11T12:40:50;46.90;;;17.30;;
22248;SDS011;67538;52.180;5.646;2024-01-11T12:43:19;47.90;;;17.30;;
22248;SDS011;67538;52.180;5.646;2024-01-11T12:45:46;50.03;;;17.93;;
22248;SDS011;67538;52.180;5.646;2024-01-11T12:48:13;43.33;;;16.73;;
22248;SDS011;67538;52.180;5.646;2024-01-11T12:50:42;46.07;;;15.37;;
22248;SDS011;67538;52.180;5.646;2024-01-11T12:53:10;49.40;;;17.80;;
22248;SDS011;67538;52.180;5.646;2024-01-11T12:55:43;50.83;;;18.10;;
22248;SDS011;67538;52.180;5.646;2024-01-11T12:58:11;52.80;;;17.03;;
22248;SDS011;67538;52.180;5.646;2024-01-11T13:00:39;49.73;;;17.47;;
22248;SDS011;67538;52.180;5.646;2024-01-11T13:03:06;48.57;;;17.70;;
22248;SDS011;67538;52.180;5.646;2024-01-11T13:05:35;48.70;;;17.03;;
22248;SDS011;67538;52.180;5.646;2024-01-11T13:08:03;47.50;;;16.80;;
22248;SDS011;67538;52.180;5.646;2024-01-11T13:10:35;51.20;;;17.77;;
22248;SDS011;67538;52.180;5.646;2024-01-11T13:13:02;47.53;;;17.63;;
22248;SDS011;67538;52.180;5.646;2024-01-11T13:15:30;42.83;;;16.73;;
22248;SDS011;67538;52.180;5.646;2024-01-11T13:17:59;51.57;;;17.60;;
22248;SDS011;67538;52.180;5.646;2024-01-11T13:20:26;54.87;;;19.03;;
22248;SDS011;67538;52.180;5.646;2024-01-11T13:25:40;52.30;;;17.87;;
22248;SDS011;67538;52.180;5.646;2024-01-11T13:28:07;52.73;;;18.60;;
22248;SDS011;67538;52.180;5.646;2024-01-11T13:30:36;58.83;;;18.67;;
22248;SDS011;67538;52.180;5.646;2024-01-11T13:33:05;55.10;;;18.23;;
22248;SDS011;67538;52.180;5.646;2024-01-11T13:35:35;57.37;;;18.17;;
22248;SDS011;67538;52.180;5.646;2024-01-11T13:38:03;54.43;;;19.10;;
22248;SDS011;67538;52.180;5.646;2024-01-11T13:40:30;57.20;;;17.73;;
22248;SDS011;67538;52.180;5.646;2024-01-11T13:42:58;49.63;;;17.13;;
22248;SDS011;67538;52.180;5.646;2024-01-11T13:45:26;49.37;;;18.00;;
22248;SDS011;67538;52.180;5.646;2024-01-11T13:47:54;52.30;;;17.20;;
22248;SDS011;67538;52.180;5.646;2024-01-11T13:50:23;59.40;;;18.27;;
22248;SDS011;67538;52.180;5.646;2024-01-11T13:52:50;48.87;;;18.43;;
22248;SDS011;67538;52.180;5.646;2024-01-11T13:55:17;54.33;;;18.00;;
22248;SDS011;67538;52.180;5.646;2024-01-11T13:57:46;43.97;;;17.60;;
22248;SDS011;67538;52.180;5.646;2024-01-11T14:00:14;47.30;;;18.67;;
22248;SDS011;67538;52.180;5.646;2024-01-11T14:02:43;50.93;;;18.63;;
22248;SDS011;67538;52.180;5.646;2024-01-11T14:05:10;55.23;;;19.73;;
22248;SDS011;67538;52.180;5.646;2024-01-11T14:07:41;55.87;;;20.13;;
22248;SDS011;67538;52.180;5.646;2024-01-11T14:10:09;55.07;;;18.63;;
22248;SDS011;67538;52.180;5.646;2024-01-11T14:12:37;54.00;;;18.83;;
22248;SDS011;67538;52.180;5.646;2024-01-11T14:15:05;62.90;;;19.00;;
22248;SDS011;67538;52.180;5.646;2024-01-11T14:17:36;57.23;;;19.80;;
22248;SDS011;67538;52.180;5.646;2024-01-11T14:20:04;46.30;;;18.13;;
22248;SDS011;67538;52.180;5.646;2024-01-11T14:22:36;53.93;;;18.13;;
22248;SDS011;67538;52.180;5.646;2024-01-11T14:25:05;52.67;;;18.03;;
22248;SDS011;67538;52.180;5.646;2024-01-11T14:27:33;61.33;;;18.90;;
22248;SDS011;67538;52.180;5.646;2024-01-11T14:30:00;55.80;;;18.20;;
22248;SDS011;67538;52.180;5.646;2024-01-11T14:32:30;46.07;;;18.37;;